Time;durP1;ratioP1;P1;durP2;ratioP2;P2;SDS_P1;SDS_P2;PMS_P1;PMS_P2;Temp;Humidity;BMP_temperature;BMP_pressure;BME280_temperature;BME280_humidity;BME280_pressure;Samples;Min_cycle;Max_cycle;Signal;HPM_P1;HPM_P2
2023/12/13 00:01:07;;;;;;;230.10;75.93;;;;;;;;;;5073844;28;20274;-78
2023/12/13 00:03:35;;;;;;;218.30;53.67;;;;;;;;;;5073020;28;20191;-78
2023/12/13 00:06:02;;;;;;;140.80;41.50;;;;;;;;;;5074046;28;20196;-78
2023/12/13 00:08:29;;;;;;;121.13;38.23;;;;;;;;;;5073653;28;20207;-79
2023/12/13 00:10:58;;;;;;;109.37;36.17;;;;;;;;;;5073623;28;20675;-78
2023/12/13 00:13:26;;;;;;;111.80;38.50;;;;;;;;;;5073295;28;20664;-78
2023/12/13 00:15:53;;;;;;;104.07;35.90;;;;;;;;;;5073514;28;20244;-78
2023/12/13 00:18:21;;;;;;;98.63;35.37;;;;;;;;;;5073401;28;20692;-78
2023/12/13 00:20:48;;;;;;;101.37;36.23;;;;;;;;;;5073338;28;20546;-79
2023/12/13 00:23:15;;;;;;;192.47;77.13;;;;;;;;;;5073569;28;20211;-78
2023/12/13 00:25:42;;;;;;;119.33;38.30;;;;;;;;;;5073440;28;20191;-78
2023/12/13 00:28:09;;;;;;;114.20;36.97;;;;;;;;;;5073424;28;20657;-78
2023/12/13 00:30:36;;;;;;;94.50;35.90;;;;;;;;;;5073202;28;20675;-77
2023/12/13 00:33:03;;;;;;;117.90;38.53;;;;;;;;;;5073367;28;20199;-77
2023/12/13 00:35:30;;;;;;;146.83;46.30;;;;;;;;;;5073662;28;20276;-78
2023/12/13 00:37:57;;;;;;;104.67;36.53;;;;;;;;;;5072981;28;20188;-79
2023/12/13 00:40:25;;;;;;;100.00;34.93;;;;;;;;;;5073454;28;20199;-77
2023/12/13 00:42:53;;;;;;;98.60;34.83;;;;;;;;;;5073393;28;20199;-77
2023/12/13 00:45:20;;;;;;;122.07;45.30;;;;;;;;;;5073249;28;20203;-77
2023/12/13 00:47:48;;;;;;;116.77;37.37;;;;;;;;;;5073229;28;20191;-77
2023/12/13 00:50:15;;;;;;;95.70;35.57;;;;;;;;;;5055529;28;20593;-78
2023/12/13 00:52:42;;;;;;;92.40;36.13;;;;;;;;;;5073282;28;20245;-77
2023/12/13 00:55:09;;;;;;;152.47;70.77;;;;;;;;;;5073023;28;20610;-78
2023/12/13 00:57:36;;;;;;;110.67;37.30;;;;;;;;;;5073202;28;20208;-77
2023/12/13 01:00:05;;;;;;;85.17;34.43;;;;;;;;;;5073215;28;20222;-78
2023/12/13 01:02:32;;;;;;;70.20;31.40;;;;;;;;;;5072919;28;20199;-77
2023/12/13 01:04:59;;;;;;;89.97;33.37;;;;;;;;;;5073340;28;20257;-78
2023/12/13 01:07:27;;;;;;;89.73;35.00;;;;;;;;;;5055461;28;20566;-77
2023/12/13 01:09:53;;;;;;;90.80;36.03;;;;;;;;;;5055408;28;20282;-77
2023/12/13 01:12:21;;;;;;;92.63;34.23;;;;;;;;;;5073069;28;20203;-77
2023/12/13 01:14:48;;;;;;;95.83;34.33;;;;;;;;;;5073787;28;20775;-78
2023/12/13 01:17:15;;;;;;;106.60;43.07;;;;;;;;;;5076638;28;20219;-77
2023/12/13 01:19:42;;;;;;;125.00;38.80;;;;;;;;;;5076749;28;20199;-77
2023/12/13 01:22:10;;;;;;;105.47;37.03;;;;;;;;;;5076949;28;20192;-77
2023/12/13 01:24:37;;;;;;;115.57;38.07;;;;;;;;;;5076939;28;20209;-77
2023/12/13 01:27:05;;;;;;;422.47;124.10;;;;;;;;;;5076666;28;20207;-77
2023/12/13 01:29:32;;;;;;;135.97;48.93;;;;;;;;;;5076495;28;20199;-77
2023/12/13 01:31:59;;;;;;;104.73;37.13;;;;;;;;;;5059290;28;20217;-76
2023/12/13 01:34:26;;;;;;;144.37;43.73;;;;;;;;;;5076130;28;20211;-77
2023/12/13 01:36:53;;;;;;;160.30;44.00;;;;;;;;;;5076497;28;20227;-77
2023/12/13 01:39:20;;;;;;;235.40;81.50;;;;;;;;;;5075990;28;20260;-78
2023/12/13 01:41:47;;;;;;;155.50;46.00;;;;;;;;;;5058793;28;20200;-79
2023/12/13 01:44:14;;;;;;;128.13;41.77;;;;;;;;;;5058783;28;20203;-79
2023/12/13 01:46:41;;;;;;;104.73;36.20;;;;;;;;;;5076661;28;20565;-78
2023/12/13 01:49:11;;;;;;;124.27;51.97;;;;;;;;;;5076254;28;20702;-78
2023/12/13 01:51:38;;;;;;;96.27;37.17;;;;;;;;;;5059071;28;20656;-78
2023/12/13 01:54:08;;;;;;;99.20;35.37;;;;;;;;;;5076189;28;20708;-78
2023/12/13 01:56:39;;;;;;;102.80;36.77;;;;;;;;;;5059157;28;20695;-78
2023/12/13 01:59:06;;;;;;;207.80;62.83;;;;;;;;;;5076161;28;20805;-77
2023/12/13 02:01:33;;;;;;;106.13;38.80;;;;;;;;;;5076105;28;20202;-78
2023/12/13 02:04:01;;;;;;;114.67;36.90;;;;;;;;;;5044920;28;20691;-79
2023/12/13 02:06:29;;;;;;;116.57;37.70;;;;;;;;;;5058555;28;20231;-78
2023/12/13 02:08:57;;;;;;;96.33;35.27;;;;;;;;;;5075933;28;20239;-78
2023/12/13 02:11:24;;;;;;;123.03;42.03;;;;;;;;;;5076046;28;20215;-78
2023/12/13 02:13:55;;;;;;;98.47;37.33;;;;;;;;;;5058437;28;20296;-78
2023/12/13 02:16:22;;;;;;;99.97;36.73;;;;;;;;;;5058364;28;20250;-77
2023/12/13 02:18:49;;;;;;;111.90;37.67;;;;;;;;;;5075762;28;20219;-78
2023/12/13 02:21:16;;;;;;;127.43;54.90;;;;;;;;;;5075511;28;20199;-78
2023/12/13 02:23:43;;;;;;;104.13;37.40;;;;;;;;;;5075617;28;20636;-78
2023/12/13 02:26:12;;;;;;;102.63;35.50;;;;;;;;;;5057681;28;20196;-77
2023/12/13 02:28:39;;;;;;;102.40;36.03;;;;;;;;;;5057316;28;20199;-78
2023/12/13 02:31:08;;;;;;;109.70;37.77;;;;;;;;;;5075586;28;20214;-76
2023/12/13 02:33:39;;;;;;;123.90;39.40;;;;;;;;;;5075327;28;20225;-77
2023/12/13 02:36:08;;;;;;;86.33;33.13;;;;;;;;;;5075627;28;20579;-77
2023/12/13 02:38:35;;;;;;;89.17;32.33;;;;;;;;;;5057451;28;20187;-77
2023/12/13 02:41:02;;;;;;;77.00;31.80;;;;;;;;;;5075346;28;20214;-78
2023/12/13 02:43:30;;;;;;;90.63;34.17;;;;;;;;;;5075061;28;20615;-77
2023/12/13 02:45:58;;;;;;;91.40;32.93;;;;;;;;;;5075369;28;20278;-77
2023/12/13 02:48:25;;;;;;;87.43;32.37;;;;;;;;;;5075146;28;20199;-77
2023/12/13 02:50:52;;;;;;;82.50;31.33;;;;;;;;;;5075130;28;20195;-77
2023/12/13 02:53:20;;;;;;;105.67;44.27;;;;;;;;;;5074898;28;20188;-77
2023/12/13 02:55:47;;;;;;;92.40;34.43;;;;;;;;;;5056790;28;20235;-77
2023/12/13 02:58:14;;;;;;;77.93;31.20;;;;;;;;;;5075024;28;20253;-77
2023/12/13 03:00:41;;;;;;;84.17;31.40;;;;;;;;;;5057464;28;20257;-78
2023/12/13 03:03:08;;;;;;;75.80;30.40;;;;;;;;;;5075573;28;20210;-77
2023/12/13 03:05:36;;;;;;;114.27;37.63;;;;;;;;;;5057228;28;20550;-78
2023/12/13 03:08:03;;;;;;;96.90;34.03;;;;;;;;;;5074501;28;20203;-77
2023/12/13 03:10:31;;;;;;;75.27;30.63;;;;;;;;;;5074744;28;20195;-77
2023/12/13 03:12:58;;;;;;;86.37;32.37;;;;;;;;;;5074500;28;20581;-77
2023/12/13 03:15:26;;;;;;;121.30;46.30;;;;;;;;;;5074821;28;20260;-77
2023/12/13 03:17:52;;;;;;;93.50;33.77;;;;;;;;;;5076161;28;20258;-77
2023/12/13 03:20:20;;;;;;;117.07;35.23;;;;;;;;;;5075710;28;20203;-77
2023/12/13 03:22:47;;;;;;;97.93;30.97;;;;;;;;;;5074309;28;20683;-79
2023/12/13 03:25:14;;;;;;;202.37;56.17;;;;;;;;;;5074682;28;20538;-77
2023/12/13 03:27:42;;;;;;;153.37;47.33;;;;;;;;;;5056786;28;20298;-77
2023/12/13 03:30:10;;;;;;;136.73;38.17;;;;;;;;;;5075241;28;20191;-77
2023/12/13 03:32:38;;;;;;;132.30;35.93;;;;;;;;;;5075102;28;20600;-78
2023/12/13 03:35:06;;;;;;;92.43;31.90;;;;;;;;;;5074447;28;20663;-77
2023/12/13 03:37:34;;;;;;;137.13;53.27;;;;;;;;;;5073947;28;20211;-77
2023/12/13 03:40:03;;;;;;;119.37;35.17;;;;;;;;;;5074337;28;20199;-77
2023/12/13 03:42:30;;;;;;;97.47;33.23;;;;;;;;;;5074314;28;20207;-77
2023/12/13 03:44:57;;;;;;;81.33;30.57;;;;;;;;;;5073797;28;20192;-77
2023/12/13 03:47:24;;;;;;;288.47;128.17;;;;;;;;;;5074024;28;20274;-78
2023/12/13 03:49:51;;;;;;;156.67;44.27;;;;;;;;;;5056435;28;20196;-77
2023/12/13 03:52:18;;;;;;;146.20;39.57;;;;;;;;;;5056149;28;20640;-77
2023/12/13 03:54:46;;;;;;;140.67;38.80;;;;;;;;;;5056367;28;20258;-77
2023/12/13 03:57:13;;;;;;;79.60;30.07;;;;;;;;;;5073777;28;20218;-77
2023/12/13 03:59:40;;;;;;;141.23;51.73;;;;;;;;;;5074017;28;20195;-77
2023/12/13 04:02:07;;;;;;;173.67;44.43;;;;;;;;;;5073992;28;20218;-77
2023/12/13 04:04:36;;;;;;;117.67;34.07;;;;;;;;;;5073637;28;20195;-77
2023/12/13 04:07:05;;;;;;;96.30;32.73;;;;;;;;;;5074272;28;20195;-77
2023/12/13 04:09:33;;;;;;;152.03;55.57;;;;;;;;;;5055862;28;20286;-77
2023/12/13 04:12:02;;;;;;;160.97;43.90;;;;;;;;;;5065688;28;20211;-77
2023/12/13 04:14:29;;;;;;;130.73;35.17;;;;;;;;;;5074161;28;20210;-77
2023/12/13 04:16:56;;;;;;;136.33;36.13;;;;;;;;;;5056119;28;20231;-76
2023/12/13 04:19:24;;;;;;;164.23;55.53;;;;;;;;;;5073729;28;20195;-77
2023/12/13 04:21:51;;;;;;;144.47;52.80;;;;;;;;;;5074467;28;20722;-77
2023/12/13 04:24:18;;;;;;;93.00;29.43;;;;;;;;;;5055655;28;20210;-77
2023/12/13 04:26:45;;;;;;;124.40;35.70;;;;;;;;;;5073245;28;20214;-77
2023/12/13 04:29:12;;;;;;;90.43;30.30;;;;;;;;;;5055854;28;20676;-77
2023/12/13 04:31:41;;;;;;;135.53;49.10;;;;;;;;;;5074034;28;20230;-77
2023/12/13 04:34:08;;;;;;;109.40;32.50;;;;;;;;;;5081001;28;20203;-77
2023/12/13 04:36:35;;;;;;;72.83;27.37;;;;;;;;;;5090388;28;20615;-77
2023/12/13 04:39:03;;;;;;;80.53;29.90;;;;;;;;;;5085961;28;20194;-77
2023/12/13 04:41:32;;;;;;;92.97;41.00;;;;;;;;;;5074372;28;20282;-77
2023/12/13 04:43:59;;;;;;;117.83;34.50;;;;;;;;;;5082740;28;20214;-77
2023/12/13 04:46:26;;;;;;;78.23;28.43;;;;;;;;;;5066211;28;20205;-78
2023/12/13 04:48:54;;;;;;;76.67;30.10;;;;;;;;;;5064571;28;20209;-78
2023/12/13 04:51:21;;;;;;;166.83;46.33;;;;;;;;;;5078721;28;20190;-77
2023/12/13 04:53:48;;;;;;;94.47;35.10;;;;;;;;;;5097369;28;20226;-78
2023/12/13 04:56:15;;;;;;;133.53;37.60;;;;;;;;;;5097555;28;20278;-78
2023/12/13 04:58:42;;;;;;;96.03;29.47;;;;;;;;;;5079586;28;20285;-78
2023/12/13 05:01:09;;;;;;;128.00;34.43;;;;;;;;;;5068704;28;20223;-78
2023/12/13 05:03:37;;;;;;;371.23;158.30;;;;;;;;;;5063190;28;20211;-78
2023/12/13 05:06:04;;;;;;;301.33;77.33;;;;;;;;;;5075937;28;20631;-78
2023/12/13 05:08:33;;;;;;;228.47;53.73;;;;;;;;;;5057786;28;20280;-77
2023/12/13 05:11:00;;;;;;;85.17;31.53;;;;;;;;;;5075991;28;21243;-78
2023/12/13 05:13:27;;;;;;;210.07;66.30;;;;;;;;;;5075159;28;20219;-78
2023/12/13 05:15:54;;;;;;;189.40;57.60;;;;;;;;;;5075731;28;20269;-77
2023/12/13 05:18:22;;;;;;;217.17;49.60;;;;;;;;;;5075462;28;20235;-78
2023/12/13 05:20:49;;;;;;;126.47;36.63;;;;;;;;;;5075443;28;20238;-78
2023/12/13 05:23:16;;;;;;;163.60;43.37;;;;;;;;;;5074812;28;20345;-78
2023/12/13 05:25:43;;;;;;;158.17;54.00;;;;;;;;;;5075744;28;20238;-78
2023/12/13 05:28:11;;;;;;;83.93;29.27;;;;;;;;;;5076949;28;20235;-78
2023/12/13 05:30:38;;;;;;;83.37;29.53;;;;;;;;;;5075421;28;20615;-78
2023/12/13 05:33:07;;;;;;;95.97;29.50;;;;;;;;;;5075668;28;20211;-78
2023/12/13 05:35:35;;;;;;;337.57;130.57;;;;;;;;;;5075253;28;20237;-78
2023/12/13 05:38:02;;;;;;;123.33;41.47;;;;;;;;;;5075882;28;20242;-78
2023/12/13 05:40:29;;;;;;;142.53;38.50;;;;;;;;;;5075369;28;20297;-78
2023/12/13 05:42:56;;;;;;;144.80;37.67;;;;;;;;;;5075687;28;20277;-78
2023/12/13 05:45:23;;;;;;;200.57;54.50;;;;;;;;;;5074466;28;20231;-77
2023/12/13 05:47:50;;;;;;;217.77;86.13;;;;;;;;;;5075545;28;20273;-78
2023/12/13 05:50:18;;;;;;;131.50;39.90;;;;;;;;;;5074514;28;20645;-77
2023/12/13 05:52:45;;;;;;;198.73;45.80;;;;;;;;;;5075384;28;20223;-77
2023/12/13 05:55:12;;;;;;;210.10;50.40;;;;;;;;;;5074736;28;20234;-78
2023/12/13 05:57:39;;;;;;;178.00;67.20;;;;;;;;;;5075116;28;20223;-78
2023/12/13 06:00:07;;;;;;;213.23;53.80;;;;;;;;;;5074504;28;20234;-78
2023/12/13 06:02:37;;;;;;;212.93;51.50;;;;;;;;;;5074001;28;20223;-77
2023/12/13 06:05:20;;;;;;;171.17;52.47;;;;;;;;;;5074267;28;20618;-78
2023/12/13 06:07:48;;;;;;;223.90;78.00;;;;;;;;;;5059923;28;20238;-78
2023/12/13 06:10:15;;;;;;;223.37;61.47;;;;;;;;;;5085224;28;20231;-77
2023/12/13 06:12:42;;;;;;;170.43;44.77;;;;;;;;;;5080870;28;20232;-78
2023/12/13 06:15:09;;;;;;;182.90;45.23;;;;;;;;;;5080869;28;20231;-78
2023/12/13 06:17:36;;;;;;;195.90;49.67;;;;;;;;;;5091426;28;20233;-78
2023/12/13 06:20:04;;;;;;;239.70;91.43;;;;;;;;;;5094481;28;20214;-78
2023/12/13 06:22:31;;;;;;;290.20;59.43;;;;;;;;;;5095455;28;20240;-78
2023/12/13 06:24:58;;;;;;;244.37;53.87;;;;;;;;;;5086784;28;20211;-78
2023/12/13 06:27:26;;;;;;;181.37;43.23;;;;;;;;;;5094903;28;20191;-78
2023/12/13 06:29:52;;;;;;;455.23;190.33;;;;;;;;;;5094942;28;20203;-78
2023/12/13 06:32:20;;;;;;;382.23;91.13;;;;;;;;;;5094855;28;20206;-77
2023/12/13 06:34:47;;;;;;;159.07;43.47;;;;;;;;;;5095438;28;20203;-77
2023/12/13 06:37:14;;;;;;;178.17;49.77;;;;;;;;;;5095440;28;20214;-78
2023/12/13 06:39:41;;;;;;;161.60;55.17;;;;;;;;;;5095358;28;20214;-78
2023/12/13 06:42:08;;;;;;;519.20;145.23;;;;;;;;;;5095281;28;20185;-77
2023/12/13 06:44:37;;;;;;;280.70;68.37;;;;;;;;;;5095433;28;20219;-78
2023/12/13 06:47:05;;;;;;;241.80;67.97;;;;;;;;;;5095399;28;20198;-78
2023/12/13 06:49:34;;;;;;;252.10;60.03;;;;;;;;;;5094799;28;20207;-78
2023/12/13 06:52:02;;;;;;;168.03;64.30;;;;;;;;;;5094987;28;20655;-77
2023/12/13 06:54:29;;;;;;;207.83;57.77;;;;;;;;;;5095222;28;20238;-78
2023/12/13 06:56:56;;;;;;;85.17;44.67;;;;;;;;;;5095316;28;20207;-77
2023/12/13 06:59:23;;;;;;;85.90;44.10;;;;;;;;;;5094524;28;20207;-78
2023/12/13 07:01:51;;;;;;;275.80;153.53;;;;;;;;;;5095131;28;20203;-78
2023/12/13 07:04:18;;;;;;;157.40;65.93;;;;;;;;;;5094688;28;20187;-77
2023/12/13 07:06:46;;;;;;;415.33;170.10;;;;;;;;;;5095106;28;20248;-78
2023/12/13 07:09:18;;;;;;;355.27;123.57;;;;;;;;;;5094989;28;20285;-77
2023/12/13 07:11:46;;;;;;;508.37;132.50;;;;;;;;;;5095948;28;20539;-77
2023/12/13 07:14:14;;;;;;;403.90;118.83;;;;;;;;;;5094402;28;20226;-78
2023/12/13 07:16:42;;;;;;;206.90;54.30;;;;;;;;;;5094646;28;20211;-77
2023/12/13 07:19:10;;;;;;;157.30;42.03;;;;;;;;;;5094327;28;20229;-78
2023/12/13 07:21:37;;;;;;;237.37;53.63;;;;;;;;;;5095055;28;20187;-77
2023/12/13 07:24:04;;;;;;;398.40;120.00;;;;;;;;;;5095320;28;20221;-77
2023/12/13 07:26:32;;;;;;;198.37;56.90;;;;;;;;;;5094603;28;20195;-77
2023/12/13 07:28:59;;;;;;;231.83;62.87;;;;;;;;;;5086229;28;20195;-77
2023/12/13 07:31:27;;;;;;;186.60;46.70;;;;;;;;;;5094524;28;20190;-77
2023/12/13 07:33:54;;;;;;;330.97;137.43;;;;;;;;;;5094088;28;20213;-77
2023/12/13 07:36:23;;;;;;;237.17;71.30;;;;;;;;;;5094499;28;20199;-77
2023/12/13 07:38:49;;;;;;;159.93;42.07;;;;;;;;;;5053766;28;20224;-77
2023/12/13 07:41:17;;;;;;;129.43;36.63;;;;;;;;;;5054507;28;20545;-77
2023/12/13 07:43:44;;;;;;;134.33;39.00;;;;;;;;;;5054145;28;20650;-77
2023/12/13 07:46:13;;;;;;;323.43;106.60;;;;;;;;;;5036193;28;20204;-77
2023/12/13 07:48:41;;;;;;;316.97;72.67;;;;;;;;;;5053782;28;20208;-78
2023/12/13 07:51:10;;;;;;;160.93;41.20;;;;;;;;;;5053973;28;20207;-77
2023/12/13 07:53:38;;;;;;;118.77;35.53;;;;;;;;;;5053927;28;20231;-78
2023/12/13 07:56:06;;;;;;;178.67;69.30;;;;;;;;;;5054239;28;20209;-77
2023/12/13 07:58:35;;;;;;;143.97;37.63;;;;;;;;;;5053576;28;20235;-77
2023/12/13 08:01:03;;;;;;;123.57;33.83;;;;;;;;;;5053658;28;20200;-78
2023/12/13 08:03:30;;;;;;;163.10;42.23;;;;;;;;;;5053631;28;20208;-77
2023/12/13 08:05:57;;;;;;;419.47;171.10;;;;;;;;;;5053698;28;20212;-78
2023/12/13 08:08:24;;;;;;;168.83;50.00;;;;;;;;;;5053609;28;20211;-78
2023/12/13 08:10:52;;;;;;;131.40;35.80;;;;;;;;;;5053409;28;20215;-77
2023/12/13 08:13:20;;;;;;;96.03;33.67;;;;;;;;;;5053708;28;20207;-78
2023/12/13 08:15:48;;;;;;;95.23;33.37;;;;;;;;;;5053457;28;20211;-77
2023/12/13 08:18:15;;;;;;;125.53;49.17;;;;;;;;;;5053220;28;20306;-77
2023/12/13 08:20:43;;;;;;;183.77;42.77;;;;;;;;;;5053252;28;20249;-77
2023/12/13 08:23:11;;;;;;;269.80;57.70;;;;;;;;;;5053638;28;20202;-78
2023/12/13 08:25:38;;;;;;;118.40;32.50;;;;;;;;;;5052638;28;20200;-78
2023/12/13 08:28:05;;;;;;;279.17;128.53;;;;;;;;;;5053338;28;20193;-77
2023/12/13 08:30:32;;;;;;;193.33;44.87;;;;;;;;;;5053120;28;20211;-77
2023/12/13 08:32:59;;;;;;;223.13;46.87;;;;;;;;;;5053607;28;20265;-77
2023/12/13 08:35:27;;;;;;;163.73;37.70;;;;;;;;;;5053266;28;20271;-77
2023/12/13 08:37:54;;;;;;;271.17;117.57;;;;;;;;;;5035610;28;20231;-78
2023/12/13 08:40:22;;;;;;;142.10;42.57;;;;;;;;;;5053069;28;20197;-77
2023/12/13 08:42:49;;;;;;;67.87;32.10;;;;;;;;;;5053285;28;20261;-78
2023/12/13 08:45:16;;;;;;;79.60;34.00;;;;;;;;;;5053192;28;20207;-78
2023/12/13 08:47:43;;;;;;;71.63;28.73;;;;;;;;;;5053477;28;20208;-78
2023/12/13 08:50:10;;;;;;;179.43;60.37;;;;;;;;;;5053384;28;20188;-77
2023/12/13 08:52:37;;;;;;;93.97;39.50;;;;;;;;;;5053083;28;20254;-78
2023/12/13 08:55:08;;;;;;;63.73;26.53;;;;;;;;;;5053326;28;20236;-78
2023/12/13 08:57:35;;;;;;;55.90;25.27;;;;;;;;;;5053321;28;20253;-77
2023/12/13 09:00:04;;;;;;;77.80;36.13;;;;;;;;;;5071100;28;20628;-77
2023/12/13 09:02:36;;;;;;;56.13;25.20;;;;;;;;;;5085207;28;20687;-78
2023/12/13 09:05:05;;;;;;;50.60;22.77;;;;;;;;;;5073977;28;20222;-77
2023/12/13 09:07:32;;;;;;;50.10;22.60;;;;;;;;;;5073438;28;20271;-77
2023/12/13 09:10:00;;;;;;;232.57;64.93;;;;;;;;;;5072889;28;20211;-78
2023/12/13 09:12:27;;;;;;;203.50;54.93;;;;;;;;;;5073247;28;20249;-77
2023/12/13 09:14:54;;;;;;;92.47;29.27;;;;;;;;;;5073268;28;20341;-77
2023/12/13 09:17:22;;;;;;;54.90;25.10;;;;;;;;;;5073034;28;20717;-77
2023/12/13 09:19:49;;;;;;;46.60;22.80;;;;;;;;;;5072838;28;20237;-78
2023/12/13 09:22:17;;;;;;;51.70;23.97;;;;;;;;;;5072944;28;20281;-78
2023/12/13 09:24:45;;;;;;;79.87;27.63;;;;;;;;;;5072999;28;20207;-77
2023/12/13 09:27:12;;;;;;;75.70;29.30;;;;;;;;;;5085712;28;20612;-78
2023/12/13 09:29:39;;;;;;;47.87;21.23;;;;;;;;;;5092940;28;20209;-77
2023/12/13 09:32:06;;;;;;;83.63;31.00;;;;;;;;;;5075241;28;20187;-77
2023/12/13 09:34:34;;;;;;;55.03;23.97;;;;;;;;;;5092925;28;20199;-77
2023/12/13 09:37:01;;;;;;;89.13;27.27;;;;;;;;;;5095723;28;20198;-77
2023/12/13 09:39:28;;;;;;;214.17;62.27;;;;;;;;;;5096629;28;20237;-77
2023/12/13 09:42:02;;;;;;;495.70;126.33;;;;;;;;;;5096933;28;20221;-78
2023/12/13 09:44:31;;;;;;;912.77;273.10;;;;;;;;;;5078687;28;20270;-78
2023/12/13 09:47:02;;;;;;;622.13;176.80;;;;;;;;;;5078686;28;20202;-77
2023/12/13 09:49:30;;;;;;;410.07;105.93;;;;;;;;;;5095927;28;20207;-77
2023/12/13 09:52:08;;;;;;;276.57;75.50;;;;;;;;;;5072452;28;20575;-78
2023/12/13 09:54:39;;;;;;;499.67;132.00;;;;;;;;;;5095980;28;20227;-78
2023/12/13 09:57:06;;;;;;;387.83;97.20;;;;;;;;;;5078426;28;20206;-78
2023/12/13 09:59:36;;;;;;;182.73;46.20;;;;;;;;;;5077766;28;20219;-78
2023/12/13 10:02:07;;;;;;;197.10;46.87;;;;;;;;;;5096413;28;20555;-77
2023/12/13 10:04:35;;;;;;;525.23;129.80;;;;;;;;;;5078745;28;20195;-77
2023/12/13 10:07:03;;;;;;;250.23;59.90;;;;;;;;;;5096449;28;20232;-77
2023/12/13 10:09:29;;;;;;;358.40;91.43;;;;;;;;;;5077974;28;20229;-77
2023/12/13 10:11:59;;;;;;;399.03;97.87;;;;;;;;;;5096258;28;20233;-77
2023/12/13 10:14:27;;;;;;;229.03;61.17;;;;;;;;;;5095487;28;20593;-77
2023/12/13 10:16:54;;;;;;;448.07;114.37;;;;;;;;;;5078137;28;20561;-77
2023/12/13 10:19:38;;;;;;;372.00;91.10;;;;;;;;;;5095594;28;20321;-77
2023/12/13 10:22:05;;;;;;;177.97;40.30;;;;;;;;;;5095755;28;20214;-77
2023/12/13 10:24:33;;;;;;;160.50;43.30;;;;;;;;;;5095610;28;20234;-78
2023/12/13 10:27:00;;;;;;;229.43;76.65;;;;;;;;;;5077709;28;20198;-77
2023/12/13 10:29:29;;;;;;;190.83;58.03;;;;;;;;;;5095834;28;20205;-77
2023/12/13 10:31:57;;;;;;;149.73;53.60;;;;;;;;;;5095860;28;20198;-77
2023/12/13 10:34:24;;;;;;;89.27;36.00;;;;;;;;;;5077237;28;20569;-77
2023/12/13 10:36:54;;;;;;;100.40;40.93;;;;;;;;;;5095766;28;20195;-77
2023/12/13 10:39:24;;;;;;;62.03;28.00;;;;;;;;;;5095355;28;20215;-77
2023/12/13 10:41:55;;;;;;;124.40;47.63;;;;;;;;;;5077633;28;20221;-77
2023/12/13 10:44:23;;;;;;;97.60;39.53;;;;;;;;;;5095463;28;20194;-77
2023/12/13 10:46:58;;;;;;;126.83;49.23;;;;;;;;;;5095251;28;20234;-77
2023/12/13 10:49:26;;;;;;;80.07;35.43;;;;;;;;;;5094869;28;20198;-77
2023/12/13 10:51:53;;;;;;;36.90;19.87;;;;;;;;;;5077732;28;20194;-77
2023/12/13 10:54:20;;;;;;;58.60;26.10;;;;;;;;;;5077593;28;20238;-77
2023/12/13 10:56:48;;;;;;;70.67;29.87;;;;;;;;;;5095449;28;20187;-77
2023/12/13 10:59:15;;;;;;;88.50;36.10;;;;;;;;;;5077391;28;20694;-77
2023/12/13 11:01:43;;;;;;;63.83;26.87;;;;;;;;;;5094920;28;20202;-77
2023/12/13 11:04:12;;;;;;;89.50;35.83;;;;;;;;;;5077526;28;20194;-77
2023/12/13 11:06:45;;;;;;;88.53;33.13;;;;;;;;;;5095127;28;20248;-77
2023/12/13 11:09:17;;;;;;;79.40;31.57;;;;;;;;;;5095195;28;20209;-77
2023/12/13 11:11:45;;;;;;;81.93;32.07;;;;;;;;;;5094894;28;20252;-77
2023/12/13 11:14:17;;;;;;;85.27;29.83;;;;;;;;;;5077305;28;20203;-77
2023/12/13 11:16:49;;;;;;;94.20;36.03;;;;;;;;;;5095119;28;20199;-77
2023/12/13 11:19:21;;;;;;;152.53;47.53;;;;;;;;;;5094893;28;20230;-77
2023/12/13 11:21:50;;;;;;;74.97;28.40;;;;;;;;;;5077127;28;20191;-77
2023/12/13 11:24:23;;;;;;;73.40;30.97;;;;;;;;;;5060791;28;20297;-77
2023/12/13 11:26:53;;;;;;;29.53;16.73;;;;;;;;;;5095208;28;20199;-77
2023/12/13 11:29:21;;;;;;;27.00;14.40;;;;;;;;;;5060451;28;20195;-77
2023/12/13 11:32:03;;;;;;;31.10;15.53;;;;;;;;;;5076978;28;20198;-77
2023/12/13 11:34:34;;;;;;;26.90;13.60;;;;;;;;;;5076966;28;20518;-77
2023/12/13 11:37:03;;;;;;;46.00;22.27;;;;;;;;;;5094933;28;20195;-77
2023/12/13 11:39:32;;;;;;;29.87;13.53;;;;;;;;;;5094465;28;20253;-77
2023/12/13 11:42:02;;;;;;;25.37;14.40;;;;;;;;;;5086064;28;20202;-77
2023/12/13 11:44:30;;;;;;;33.63;17.00;;;;;;;;;;5076385;28;20198;-77
2023/12/13 11:47:03;;;;;;;44.53;21.00;;;;;;;;;;5076879;28;20203;-78
2023/12/13 11:49:30;;;;;;;75.83;27.70;;;;;;;;;;5076584;28;20199;-77
2023/12/13 11:51:58;;;;;;;41.87;19.10;;;;;;;;;;5094362;28;20710;-77
2023/12/13 11:54:25;;;;;;;50.60;21.10;;;;;;;;;;5075990;28;20230;-77
2023/12/13 11:56:52;;;;;;;78.67;31.67;;;;;;;;;;5093977;28;20202;-77
2023/12/13 11:59:20;;;;;;;36.47;18.80;;;;;;;;;;5093987;28;20226;-77
2023/12/13 12:01:47;;;;;;;57.27;25.67;;;;;;;;;;5093992;28;20218;-77
2023/12/13 12:04:18;;;;;;;113.60;42.90;;;;;;;;;;5094060;28;20191;-77
2023/12/13 12:06:47;;;;;;;694.30;383.77;;;;;;;;;;5093788;28;20256;-77
2023/12/13 12:09:16;;;;;;;294.63;100.73;;;;;;;;;;5094024;28;20203;-77
2023/12/13 12:11:43;;;;;;;396.47;124.47;;;;;;;;;;5093727;28;20256;-77
2023/12/13 12:14:10;;;;;;;537.37;194.63;;;;;;;;;;5093955;28;20199;-77
2023/12/13 12:16:38;;;;;;;620.03;224.83;;;;;;;;;;5093898;28;20207;-77
2023/12/13 12:19:06;;;;;;;287.77;98.73;;;;;;;;;;5093552;28;20214;-77
2023/12/13 12:21:35;;;;;;;233.50;77.00;;;;;;;;;;5075746;28;20300;-77
2023/12/13 12:24:02;;;;;;;169.87;56.47;;;;;;;;;;5085574;28;20264;-77
2023/12/13 12:26:30;;;;;;;271.43;90.53;;;;;;;;;;5093518;28;20632;-77
2023/12/13 12:28:57;;;;;;;379.37;116.73;;;;;;;;;;5093696;28;20205;-77
2023/12/13 12:31:24;;;;;;;392.30;115.97;;;;;;;;;;5093473;28;20577;-77
2023/12/13 12:33:55;;;;;;;350.37;107.97;;;;;;;;;;5093410;28;20194;-77
2023/12/13 12:36:23;;;;;;;541.27;155.07;;;;;;;;;;5093441;28;20194;-77
2023/12/13 12:38:50;;;;;;;464.10;136.93;;;;;;;;;;5092886;28;20302;-77
2023/12/13 12:41:18;;;;;;;352.20;98.03;;;;;;;;;;5075447;28;20532;-77
2023/12/13 12:43:49;;;;;;;291.23;81.73;;;;;;;;;;5093724;28;20730;-77
2023/12/13 12:46:16;;;;;;;112.57;35.30;;;;;;;;;;5075926;28;20202;-77
2023/12/13 12:48:44;;;;;;;160.30;48.77;;;;;;;;;;5093360;28;20663;-77
2023/12/13 12:51:11;;;;;;;157.73;48.87;;;;;;;;;;5075664;28;20198;-77
2023/12/13 12:53:38;;;;;;;43.53;18.37;;;;;;;;;;5075369;28;20199;-77
2023/12/13 12:56:07;;;;;;;42.70;18.73;;;;;;;;;;5075530;28;20190;-77
2023/12/13 12:58:38;;;;;;;30.10;16.27;;;;;;;;;;5093274;28;20685;-77
2023/12/13 13:01:05;;;;;;;63.70;24.43;;;;;;;;;;5075124;28;20202;-77
2023/12/13 13:03:33;;;;;;;124.63;39.33;;;;;;;;;;5075377;28;20203;-77
2023/12/13 13:06:02;;;;;;;59.70;23.73;;;;;;;;;;5074629;28;20194;-77
2023/12/13 13:08:29;;;;;;;61.83;24.60;;;;;;;;;;5093041;28;20189;-77
2023/12/13 13:10:56;;;;;;;148.50;48.70;;;;;;;;;;5093648;28;20194;-77
2023/12/13 13:13:25;;;;;;;82.50;34.13;;;;;;;;;;5097322;28;20606;-77
2023/12/13 13:15:52;;;;;;;66.73;27.10;;;;;;;;;;5079042;28;20701;-77
2023/12/13 13:18:19;;;;;;;174.10;59.50;;;;;;;;;;5079487;28;20230;-77
2023/12/13 13:20:47;;;;;;;134.87;52.67;;;;;;;;;;5097250;28;20229;-77
2023/12/13 13:23:14;;;;;;;71.97;32.20;;;;;;;;;;5097083;28;20208;-77
2023/12/13 13:25:41;;;;;;;52.93;25.97;;;;;;;;;;5088102;28;20656;-77
2023/12/13 13:28:08;;;;;;;47.03;25.23;;;;;;;;;;5095275;28;20214;-77
2023/12/13 13:30:35;;;;;;;51.07;21.97;;;;;;;;;;5078710;28;20187;-77
2023/12/13 13:33:02;;;;;;;40.93;19.43;;;;;;;;;;5079149;28;20241;-78
2023/12/13 13:35:30;;;;;;;31.57;17.50;;;;;;;;;;5076518;28;20224;-77
2023/12/13 13:37:57;;;;;;;38.23;19.67;;;;;;;;;;5074801;28;20247;-77
2023/12/13 13:40:25;;;;;;;48.73;23.17;;;;;;;;;;5075402;28;20223;-77
2023/12/13 13:42:52;;;;;;;35.60;19.37;;;;;;;;;;5081383;28;20235;-77
2023/12/13 13:45:19;;;;;;;35.77;18.97;;;;;;;;;;5074005;28;20231;-77
2023/12/13 13:47:46;;;;;;;34.20;17.93;;;;;;;;;;5073949;28;20646;-77
2023/12/13 13:50:14;;;;;;;35.30;18.70;;;;;;;;;;5087242;28;20219;-78
2023/12/13 13:52:42;;;;;;;36.77;18.93;;;;;;;;;;5077961;28;20227;-78
2023/12/13 13:55:09;;;;;;;30.50;18.67;;;;;;;;;;5094971;28;20245;-78
2023/12/13 13:57:37;;;;;;;37.47;18.43;;;;;;;;;;5097369;28;20242;-77
2023/12/13 14:00:10;;;;;;;35.30;17.93;;;;;;;;;;5096216;28;20234;-78
2023/12/13 14:02:44;;;;;;;67.60;22.40;;;;;;;;;;5094873;28;20223;-78
2023/12/13 14:05:12;;;;;;;43.03;18.57;;;;;;;;;;5095513;28;20238;-78
2023/12/13 14:07:39;;;;;;;36.33;18.13;;;;;;;;;;5095030;28;20316;-78
2023/12/13 14:10:07;;;;;;;36.10;18.13;;;;;;;;;;5094828;28;20575;-78
2023/12/13 14:12:34;;;;;;;33.23;17.13;;;;;;;;;;5063793;28;20269;-78